sensor_id;sensor_type;location;lat;lon;timestamp;pressure;altitude;pressure_sealevel;temperature;humidity
31162;BME280;17796;49.296;-117.656;2024-01-25T00:04:09;95800;;;2.97825;100.0
31162;BME280;17796;49.296;-117.656;2024-01-25T00:19:12;95800;;;2.64925;100.0
31162;BME280;17796;49.296;-117.656;2024-01-25T00:34:16;95800;;;2.81724;100.0
31162;BME280;17796;49.296;-117.656;2024-01-25T00:49:20;95800;;;2.51237;100.0
31162;BME280;17796;49.296;-117.656;2024-01-25T01:04:25;95800;;;2.19702;100.0
31162;BME280;17796;49.296;-117.656;2024-01-25T01:19:30;95800;;;2.37645;100.0
31162;BME280;17796;49.296;-117.656;2024-01-25T01:34:42;95800;;;2.68545;100.0
31162;BME280;17796;49.296;-117.656;2024-01-25T01:49:46;95800;;;2.50602;100.0
31162;BME280;17796;49.296;-117.656;2024-01-25T02:04:50;95900;;;2.51237;100.0
31162;BME280;17796;49.296;-117.656;2024-01-25T02:19:54;95900;;;2.30754;100.0
31162;BME280;17796;49.296;-117.656;2024-01-25T02:34:57;95900;;;2.03633;100.0
31162;BME280;17796;49.296;-117.656;2024-01-25T02:50:01;95900;;;2.00934;100.0
31162;BME280;17796;49.296;-117.656;2024-01-25T03:05:05;95900;;;2.22465;100.0
31162;BME280;17796;49.296;-117.656;2024-01-25T03:20:10;95900;;;2.32246;100.0
31162;BME280;17796;49.296;-117.656;2024-01-25T03:35:14;95900;;;2.231;100.0
31162;BME280;17796;49.296;-117.656;2024-01-25T03:50:18;95900;;;2.33136;100.0
31162;BME280;17796;49.296;-117.656;2024-01-25T04:05:22;95900;;;1.74512;100.0
31162;BME280;17796;49.296;-117.656;2024-01-25T04:20:27;95900;;;2.16781;100.0
31162;BME280;17796;49.296;-117.656;2024-01-25T04:35:32;95900;;;2.49268;100.0
31162;BME280;17796;49.296;-117.656;2024-01-25T04:50:36;95900;;;1.55363;100.0
31162;BME280;17796;49.296;-117.656;2024-01-25T05:05:40;96000;;;1.50727;100.0
31162;BME280;17796;49.296;-117.656;2024-01-25T05:20:43;96000;;;2.04618;100.0
31162;BME280;17796;49.296;-117.656;2024-01-25T05:35:48;96000;;;1.82325;100.0
31162;BME280;17796;49.296;-117.656;2024-01-25T05:50:52;96000;;;1.77339;100.0
31162;BME280;17796;49.296;-117.656;2024-01-25T06:05:55;96000;;;1.77148;100.0
31162;BME280;17796;49.296;-117.656;2024-01-25T06:20:59;96000;;;1.99537;100.0
31162;BME280;17796;49.296;-117.656;2024-01-25T06:36:03;96000;;;1.81213;100.0
31162;BME280;17796;49.296;-117.656;2024-01-25T06:51:07;96100;;;1.53616;100.0
31162;BME280;17796;49.296;-117.656;2024-01-25T07:06:11;96100;;;1.59237;100.0
31162;BME280;17796;49.296;-117.656;2024-01-25T07:21:14;96100;;;1.54855;100.0
31162;BME280;17796;49.296;-117.656;2024-01-25T07:36:18;96100;;;1.48027;100.0
31162;BME280;17796;49.296;-117.656;2024-01-25T07:51:22;96100;;;1.90073;100.0
31162;BME280;17796;49.296;-117.656;2024-01-25T08:06:26;96100;;;1.80419;100.0
31162;BME280;17796;49.296;-117.656;2024-01-25T08:21:31;96100;;;1.93852;100.0
31162;BME280;17796;49.296;-117.656;2024-01-25T08:36:35;96100;;;1.83023;100.0
31162;BME280;17796;49.296;-117.656;2024-01-25T08:51:39;96100;;;1.77625;100.0
31162;BME280;17796;49.296;-117.656;2024-01-25T09:06:44;96100;;;1.87374;100.0
31162;BME280;17796;49.296;-117.656;2024-01-25T09:21:50;96100;;;1.81785;100.0
31162;BME280;17796;49.296;-117.656;2024-01-25T09:36:53;96100;;;1.56729;100.0
31162;BME280;17796;49.296;-117.656;2024-01-25T09:51:57;96100;;;1.33864;100.0
31162;BME280;17796;49.296;-117.656;2024-01-25T10:07:03;96200;;;1.68955;100.0
31162;BME280;17796;49.296;-117.656;2024-01-25T10:22:07;96200;;;1.54728;100.0
31162;BME280;17796;49.296;-117.656;2024-01-25T10:37:11;96200;;;1.77561;100.0
31162;BME280;17796;49.296;-117.656;2024-01-25T10:52:16;96200;;;1.23924;100.0
31162;BME280;17796;49.296;-117.656;2024-01-25T11:07:21;96200;;;1.41485;100.0
31162;BME280;17796;49.296;-117.656;2024-01-25T11:22:34;96200;;;2.00077;100.0
31162;BME280;17796;49.296;-117.656;2024-01-25T11:37:39;96200;;;1.80737;100.0
31162;BME280;17796;49.296;-117.656;2024-01-25T11:52:42;96200;;;1.10967;100.0
31162;BME280;17796;49.296;-117.656;2024-01-25T12:07:46;96200;;;1.87469;100.0
31162;BME280;17796;49.296;-117.656;2024-01-25T12:22:49;96200;;;1.1065;100.0
31162;BME280;17796;49.296;-117.656;2024-01-25T12:37:53;96200;;;1.61651;100.0
31162;BME280;17796;49.296;-117.656;2024-01-25T12:52:57;96200;;;1.84166;100.0
31162;BME280;17796;49.296;-117.656;2024-01-25T13:08:00;96300;;;1.78577;100.0
31162;BME280;17796;49.296;-117.656;2024-01-25T13:23:04;96300;;;1.63397;100.0
31162;BME280;17796;49.296;-117.656;2024-01-25T13:38:07;96300;;;1.80895;100.0
31162;BME280;17796;49.296;-117.656;2024-01-25T13:53:11;96300;;;2.09;100.0
31162;BME280;17796;49.296;-117.656;2024-01-25T14:08:15;96300;;;2.07222;100.0
31162;BME280;17796;49.296;-117.656;2024-01-25T14:23:18;96300;;;1.56189;100.0
31162;BME280;17796;49.296;-117.656;2024-01-25T14:38:22;96300;;;1.92677;100.0
31162;BME280;17796;49.296;-117.656;2024-01-25T14:53:25;96400;;;1.29799;100.0
31162;BME280;17796;49.296;-117.656;2024-01-25T15:08:29;96400;;;1.95186;100.0
31162;BME280;17796;49.296;-117.656;2024-01-25T15:23:32;96400;;;2.00172;100.0
31162;BME280;17796;49.296;-117.656;2024-01-25T15:38:36;96400;;;1.87533;100.0
31162;BME280;17796;49.296;-117.656;2024-01-25T15:53:40;96400;;;1.94932;100.0
31162;BME280;17796;49.296;-117.656;2024-01-25T16:08:43;96400;;;2.19194;100.0
31162;BME280;17796;49.296;-117.656;2024-01-25T16:23:47;96500;;;2.60987;100.0
31162;BME280;17796;49.296;-117.656;2024-01-25T16:38:51;96500;;;2.40916;100.0
31162;BME280;17796;49.296;-117.656;2024-01-25T16:53:55;96500;;;2.89187;100.0
31162;BME280;17796;49.296;-117.656;2024-01-25T17:08:59;96500;;;3.08813;100.0
31162;BME280;17796;49.296;-117.656;2024-01-25T17:24:05;96500;;;3.35394;100.0
31162;BME280;17796;49.296;-117.656;2024-01-25T17:39:09;96500;;;3.32091;100.0
31162;BME280;17796;49.296;-117.656;2024-01-25T17:54:12;96600;;;3.57751;100.0
31162;BME280;17796;49.296;-117.656;2024-01-25T18:09:17;96600;;;3.96146;100.0
31162;BME280;17796;49.296;-117.656;2024-01-25T18:24:21;96600;;;4.16662;100.0
31162;BME280;17796;49.296;-117.656;2024-01-25T18:39:26;96600;;;3.97099;100.0
31162;BME280;17796;49.296;-117.656;2024-01-25T18:54:30;96600;;;4.40988;100.0
31162;BME280;17796;49.296;-117.656;2024-01-25T19:09:33;96600;;;5.06632;100.0
31162;BME280;17796;49.296;-117.656;2024-01-25T19:24:37;96600;;;4.74143;100.0
31162;BME280;17796;49.296;-117.656;2024-01-25T19:39:41;96600;;;5.22034;100.0
31162;BME280;17796;49.296;-117.656;2024-01-25T19:54:45;96600;;;5.58715;100.0
31162;BME280;17796;49.296;-117.656;2024-01-25T20:09:48;96600;;;6.14292;100.0
31162;BME280;17796;49.296;-117.656;2024-01-25T20:24:51;96600;;;6.0324;100.0
31162;BME280;17796;49.296;-117.656;2024-01-25T20:39:56;96600;;;6.15245;100.0
31162;BME280;17796;49.296;-117.656;2024-01-25T20:55:00;96600;;;6.50878;100.0
31162;BME280;17796;49.296;-117.656;2024-01-25T21:10:04;96600;;;6.54244;100.0
31162;BME280;17796;49.296;-117.656;2024-01-25T21:25:09;96600;;;7.05439;100.0
31162;BME280;17796;49.296;-117.656;2024-01-25T21:40:12;96600;;;6.81493;100.0
31162;BME280;17796;49.296;-117.656;2024-01-25T21:55:16;96600;;;6.63645;100.0
31162;BME280;17796;49.296;-117.656;2024-01-25T22:10:20;96600;;;6.52688;100.0
31162;BME280;17796;49.296;-117.656;2024-01-25T22:25:23;96600;;;6.73299;100.0
31162;BME280;17796;49.296;-117.656;2024-01-25T22:40:27;96700;;;6.10735;100.0
31162;BME280;17796;49.296;-117.656;2024-01-25T22:55:30;96700;;;4.79987;100.0
31162;BME280;17796;49.296;-117.656;2024-01-25T23:10:34;96700;;;3.55306;100.0
31162;BME280;17796;49.296;-117.656;2024-01-25T23:25:38;96700;;;3.42254;100.0
31162;BME280;17796;49.296;-117.656;2024-01-25T23:40:42;96700;;;3.66802;100.0
31162;BME280;17796;49.296;-117.656;2024-01-25T23:55:46;96700;;;4.08532;100.0
